sensor_id;sensor_type;location;lat;lon;timestamp;temperature;humidity
10968;DHT22;5536;49.602;10.980;2023-03-15T00:00:34;3.40;99.90
10968;DHT22;5536;49.602;10.980;2023-03-15T00:03:01;3.40;99.90
10968;DHT22;5536;49.602;10.980;2023-03-15T00:05:29;3.50;99.90
10968;DHT22;5536;49.602;10.980;2023-03-15T00:07:57;3.60;99.90
10968;DHT22;5536;49.602;10.980;2023-03-15T00:10:24;3.50;99.90
10968;DHT22;5536;49.602;10.980;2023-03-15T00:12:51;3.40;99.90
10968;DHT22;5536;49.602;10.980;2023-03-15T00:15:20;3.30;99.90
10968;DHT22;5536;49.602;10.980;2023-03-15T00:17:47;3.40;99.90
10968;DHT22;5536;49.602;10.980;2023-03-15T00:20:14;3.40;99.90
10968;DHT22;5536;49.602;10.980;2023-03-15T00:22:43;3.50;99.90
10968;DHT22;5536;49.602;10.980;2023-03-15T00:25:10;3.50;99.90
10968;DHT22;5536;49.602;10.980;2023-03-15T00:27:37;3.50;99.90
10968;DHT22;5536;49.602;10.980;2023-03-15T00:30:05;3.50;99.90
10968;DHT22;5536;49.602;10.980;2023-03-15T00:32:34;3.50;99.90
10968;DHT22;5536;49.602;10.980;2023-03-15T00:35:01;3.50;99.90
10968;DHT22;5536;49.602;10.980;2023-03-15T00:37:29;3.50;99.90
10968;DHT22;5536;49.602;10.980;2023-03-15T00:39:56;3.50;99.90
10968;DHT22;5536;49.602;10.980;2023-03-15T00:42:23;3.50;99.90
10968;DHT22;5536;49.602;10.980;2023-03-15T00:44:53;3.60;99.90
10968;DHT22;5536;49.602;10.980;2023-03-15T00:47:21;3.60;99.90
10968;DHT22;5536;49.602;10.980;2023-03-15T00:49:49;3.60;99.90
10968;DHT22;5536;49.602;10.980;2023-03-15T00:52:17;3.50;99.90
10968;DHT22;5536;49.602;10.980;2023-03-15T00:54:50;3.50;99.90
10968;DHT22;5536;49.602;10.980;2023-03-15T00:57:18;3.50;99.90
10968;DHT22;5536;49.602;10.980;2023-03-15T00:59:45;3.40;99.90
10968;DHT22;5536;49.602;10.980;2023-03-15T01:02:12;3.50;99.90
10968;DHT22;5536;49.602;10.980;2023-03-15T01:04:39;3.30;99.90
10968;DHT22;5536;49.602;10.980;2023-03-15T01:07:08;3.30;99.90
10968;DHT22;5536;49.602;10.980;2023-03-15T01:09:36;3.30;99.90
10968;DHT22;5536;49.602;10.980;2023-03-15T01:12:04;3.30;99.90
10968;DHT22;5536;49.602;10.980;2023-03-15T01:14:31;3.20;99.90
10968;DHT22;5536;49.602;10.980;2023-03-15T01:16:59;3.10;99.90
10968;DHT22;5536;49.602;10.980;2023-03-15T01:19:26;3.10;99.90
10968;DHT22;5536;49.602;10.980;2023-03-15T01:21:54;3.10;99.90
10968;DHT22;5536;49.602;10.980;2023-03-15T01:24:22;3.10;99.90
10968;DHT22;5536;49.602;10.980;2023-03-15T01:26:49;3.00;99.90
10968;DHT22;5536;49.602;10.980;2023-03-15T01:29:16;3.00;99.90
10968;DHT22;5536;49.602;10.980;2023-03-15T01:31:43;3.00;99.90
10968;DHT22;5536;49.602;10.980;2023-03-15T01:34:10;3.00;99.90
10968;DHT22;5536;49.602;10.980;2023-03-15T01:36:37;3.00;99.90
10968;DHT22;5536;49.602;10.980;2023-03-15T01:39:04;2.90;99.90
10968;DHT22;5536;49.602;10.980;2023-03-15T01:41:33;2.90;99.90
10968;DHT22;5536;49.602;10.980;2023-03-15T01:44:00;2.90;99.90
10968;DHT22;5536;49.602;10.980;2023-03-15T01:46:28;2.90;99.90
10968;DHT22;5536;49.602;10.980;2023-03-15T01:49:03;2.90;99.90
10968;DHT22;5536;49.602;10.980;2023-03-15T01:51:35;2.90;99.90
10968;DHT22;5536;49.602;10.980;2023-03-15T01:54:05;2.90;99.90
10968;DHT22;5536;49.602;10.980;2023-03-15T01:56:37;3.00;99.90
10968;DHT22;5536;49.602;10.980;2023-03-15T01:59:10;3.00;99.90
10968;DHT22;5536;49.602;10.980;2023-03-15T02:01:41;3.00;99.90
10968;DHT22;5536;49.602;10.980;2023-03-15T02:04:12;2.90;99.90
10968;DHT22;5536;49.602;10.980;2023-03-15T02:06:40;2.90;99.90
10968;DHT22;5536;49.602;10.980;2023-03-15T02:09:14;2.90;99.90
10968;DHT22;5536;49.602;10.980;2023-03-15T02:11:43;2.90;99.90
10968;DHT22;5536;49.602;10.980;2023-03-15T02:14:12;2.90;99.90
10968;DHT22;5536;49.602;10.980;2023-03-15T02:16:40;2.90;99.90
10968;DHT22;5536;49.602;10.980;2023-03-15T02:19:21;2.90;99.90
10968;DHT22;5536;49.602;10.980;2023-03-15T02:21:56;3.00;99.90
10968;DHT22;5536;49.602;10.980;2023-03-15T02:24:31;3.00;99.90
10968;DHT22;5536;49.602;10.980;2023-03-15T02:27:03;3.00;99.90
10968;DHT22;5536;49.602;10.980;2023-03-15T02:29:31;2.90;99.90
10968;DHT22;5536;49.602;10.980;2023-03-15T02:31:59;2.90;99.90
10968;DHT22;5536;49.602;10.980;2023-03-15T02:34:29;2.90;99.90
10968;DHT22;5536;49.602;10.980;2023-03-15T02:36:56;3.00;99.90
10968;DHT22;5536;49.602;10.980;2023-03-15T02:39:23;2.90;99.90
10968;DHT22;5536;49.602;10.980;2023-03-15T02:41:53;2.90;99.90
10968;DHT22;5536;49.602;10.980;2023-03-15T02:44:24;2.90;99.90
10968;DHT22;5536;49.602;10.980;2023-03-15T02:46:58;2.90;99.90
10968;DHT22;5536;49.602;10.980;2023-03-15T02:49:29;2.90;99.90
10968;DHT22;5536;49.602;10.980;2023-03-15T02:51:57;2.90;99.90
10968;DHT22;5536;49.602;10.980;2023-03-15T02:54:24;2.90;99.90
10968;DHT22;5536;49.602;10.980;2023-03-15T02:56:51;2.80;99.90
10968;DHT22;5536;49.602;10.980;2023-03-15T02:59:18;2.70;99.90
10968;DHT22;5536;49.602;10.980;2023-03-15T03:01:45;2.70;99.90
10968;DHT22;5536;49.602;10.980;2023-03-15T03:04:13;2.70;99.90
10968;DHT22;5536;49.602;10.980;2023-03-15T03:06:40;2.70;99.90
10968;DHT22;5536;49.602;10.980;2023-03-15T03:09:08;2.60;99.90
10968;DHT22;5536;49.602;10.980;2023-03-15T03:11:36;2.60;99.90
10968;DHT22;5536;49.602;10.980;2023-03-15T03:14:03;2.60;99.90
10968;DHT22;5536;49.602;10.980;2023-03-15T03:16:30;2.50;99.90
10968;DHT22;5536;49.602;10.980;2023-03-15T03:18:58;2.50;99.90
10968;DHT22;5536;49.602;10.980;2023-03-15T03:21:29;2.50;99.90
10968;DHT22;5536;49.602;10.980;2023-03-15T03:23:56;2.50;99.90
10968;DHT22;5536;49.602;10.980;2023-03-15T03:26:23;2.40;99.90
10968;DHT22;5536;49.602;10.980;2023-03-15T03:28:53;2.40;99.90
10968;DHT22;5536;49.602;10.980;2023-03-15T03:31:23;2.30;99.90
10968;DHT22;5536;49.602;10.980;2023-03-15T03:33:50;2.30;99.90
10968;DHT22;5536;49.602;10.980;2023-03-15T03:36:17;2.30;99.90
10968;DHT22;5536;49.602;10.980;2023-03-15T03:38:46;2.20;99.90
10968;DHT22;5536;49.602;10.980;2023-03-15T03:41:14;2.20;99.90
10968;DHT22;5536;49.602;10.980;2023-03-15T03:43:41;2.20;99.90
10968;DHT22;5536;49.602;10.980;2023-03-15T03:46:09;2.20;99.90
10968;DHT22;5536;49.602;10.980;2023-03-15T03:48:36;2.20;99.90
10968;DHT22;5536;49.602;10.980;2023-03-15T03:51:03;2.20;99.90
10968;DHT22;5536;49.602;10.980;2023-03-15T03:53:30;2.20;99.90
10968;DHT22;5536;49.602;10.980;2023-03-15T03:55:59;2.10;99.90
10968;DHT22;5536;49.602;10.980;2023-03-15T03:58:28;2.10;99.90
10968;DHT22;5536;49.602;10.980;2023-03-15T04:00:55;2.10;99.90
10968;DHT22;5536;49.602;10.980;2023-03-15T04:03:22;2.10;99.90
10968;DHT22;5536;49.602;10.980;2023-03-15T04:05:51;2.00;99.90
10968;DHT22;5536;49.602;10.980;2023-03-15T04:08:19;1.90;99.90
10968;DHT22;5536;49.602;10.980;2023-03-15T04:10:49;2.00;99.90
10968;DHT22;5536;49.602;10.980;2023-03-15T04:13:17;2.00;99.90
10968;DHT22;5536;49.602;10.980;2023-03-15T04:15:44;1.90;99.90
10968;DHT22;5536;49.602;10.980;2023-03-15T04:18:12;1.90;99.90
10968;DHT22;5536;49.602;10.980;2023-03-15T04:20:39;1.80;99.90
10968;DHT22;5536;49.602;10.980;2023-03-15T04:23:12;1.90;99.90
10968;DHT22;5536;49.602;10.980;2023-03-15T04:25:39;1.90;99.90
10968;DHT22;5536;49.602;10.980;2023-03-15T04:28:06;1.90;99.90
10968;DHT22;5536;49.602;10.980;2023-03-15T04:30:36;1.80;99.90
10968;DHT22;5536;49.602;10.980;2023-03-15T04:33:04;1.80;99.90
10968;DHT22;5536;49.602;10.980;2023-03-15T04:35:34;1.80;99.90
10968;DHT22;5536;49.602;10.980;2023-03-15T04:38:01;1.70;99.90
10968;DHT22;5536;49.602;10.980;2023-03-15T04:40:29;1.60;99.90
10968;DHT22;5536;49.602;10.980;2023-03-15T04:43:00;1.70;99.90
10968;DHT22;5536;49.602;10.980;2023-03-15T04:45:28;1.70;99.90
10968;DHT22;5536;49.602;10.980;2023-03-15T04:47:57;1.70;99.90
10968;DHT22;5536;49.602;10.980;2023-03-15T04:50:25;1.70;99.90
10968;DHT22;5536;49.602;10.980;2023-03-15T04:52:52;1.70;99.90
10968;DHT22;5536;49.602;10.980;2023-03-15T04:55:19;1.70;99.90
10968;DHT22;5536;49.602;10.980;2023-03-15T04:57:46;1.70;99.90
10968;DHT22;5536;49.602;10.980;2023-03-15T05:00:13;1.70;99.90
10968;DHT22;5536;49.602;10.980;2023-03-15T05:02:40;1.70;99.90
10968;DHT22;5536;49.602;10.980;2023-03-15T05:05:09;1.70;99.90
10968;DHT22;5536;49.602;10.980;2023-03-15T05:07:37;1.70;99.90
10968;DHT22;5536;49.602;10.980;2023-03-15T05:10:05;1.80;99.90
10968;DHT22;5536;49.602;10.980;2023-03-15T05:12:32;1.60;99.90
10968;DHT22;5536;49.602;10.980;2023-03-15T05:14:59;1.50;99.90
10968;DHT22;5536;49.602;10.980;2023-03-15T05:17:26;1.50;99.90
10968;DHT22;5536;49.602;10.980;2023-03-15T05:19:54;1.40;99.90
10968;DHT22;5536;49.602;10.980;2023-03-15T05:22:22;1.40;99.90
10968;DHT22;5536;49.602;10.980;2023-03-15T05:24:50;1.50;99.90
10968;DHT22;5536;49.602;10.980;2023-03-15T05:27:18;1.60;99.90
10968;DHT22;5536;49.602;10.980;2023-03-15T05:29:45;1.60;99.90
10968;DHT22;5536;49.602;10.980;2023-03-15T05:32:12;1.60;99.90
10968;DHT22;5536;49.602;10.980;2023-03-15T05:34:39;1.50;99.90
10968;DHT22;5536;49.602;10.980;2023-03-15T05:37:07;1.30;99.90
10968;DHT22;5536;49.602;10.980;2023-03-15T05:39:36;1.30;99.90
10968;DHT22;5536;49.602;10.980;2023-03-15T05:42:03;1.40;99.90
10968;DHT22;5536;49.602;10.980;2023-03-15T05:44:30;1.30;99.90
10968;DHT22;5536;49.602;10.980;2023-03-15T05:46:57;1.30;99.90
10968;DHT22;5536;49.602;10.980;2023-03-15T05:49:24;1.20;99.90
10968;DHT22;5536;49.602;10.980;2023-03-15T05:51:51;1.20;99.90
10968;DHT22;5536;49.602;10.980;2023-03-15T05:54:18;1.30;99.90
10968;DHT22;5536;49.602;10.980;2023-03-15T05:56:46;1.40;99.90
10968;DHT22;5536;49.602;10.980;2023-03-15T05:59:13;1.40;99.90
10968;DHT22;5536;49.602;10.980;2023-03-15T06:01:40;1.40;99.90
10968;DHT22;5536;49.602;10.980;2023-03-15T06:04:07;1.50;99.90
10968;DHT22;5536;49.602;10.980;2023-03-15T06:06:34;1.50;99.90
10968;DHT22;5536;49.602;10.980;2023-03-15T06:09:02;1.50;99.90
10968;DHT22;5536;49.602;10.980;2023-03-15T06:11:29;1.50;99.90
10968;DHT22;5536;49.602;10.980;2023-03-15T06:13:57;1.50;99.90
10968;DHT22;5536;49.602;10.980;2023-03-15T06:16:24;1.60;99.90
10968;DHT22;5536;49.602;10.980;2023-03-15T06:18:51;1.60;99.90
10968;DHT22;5536;49.602;10.980;2023-03-15T06:21:18;1.70;99.90
10968;DHT22;5536;49.602;10.980;2023-03-15T06:23:45;1.80;99.90
10968;DHT22;5536;49.602;10.980;2023-03-15T06:26:12;1.80;99.90
10968;DHT22;5536;49.602;10.980;2023-03-15T06:28:40;1.90;99.90
10968;DHT22;5536;49.602;10.980;2023-03-15T06:31:09;2.00;99.90
10968;DHT22;5536;49.602;10.980;2023-03-15T06:33:36;1.90;99.90
10968;DHT22;5536;49.602;10.980;2023-03-15T06:36:04;2.00;99.90
10968;DHT22;5536;49.602;10.980;2023-03-15T06:38:31;2.00;99.90
10968;DHT22;5536;49.602;10.980;2023-03-15T06:40:59;2.00;99.90
10968;DHT22;5536;49.602;10.980;2023-03-15T06:43:26;2.10;99.90
10968;DHT22;5536;49.602;10.980;2023-03-15T06:45:54;2.10;99.90
10968;DHT22;5536;49.602;10.980;2023-03-15T06:48:24;2.10;99.90
10968;DHT22;5536;49.602;10.980;2023-03-15T06:50:52;2.10;99.90
10968;DHT22;5536;49.602;10.980;2023-03-15T06:53:19;2.20;99.90
10968;DHT22;5536;49.602;10.980;2023-03-15T06:55:46;2.20;99.90
10968;DHT22;5536;49.602;10.980;2023-03-15T06:58:15;2.40;99.90
10968;DHT22;5536;49.602;10.980;2023-03-15T07:00:43;2.30;99.90
10968;DHT22;5536;49.602;10.980;2023-03-15T07:03:09;2.40;99.90
10968;DHT22;5536;49.602;10.980;2023-03-15T07:05:38;2.50;99.90
10968;DHT22;5536;49.602;10.980;2023-03-15T07:08:05;2.60;99.90
10968;DHT22;5536;49.602;10.980;2023-03-15T07:10:32;2.70;99.90
10968;DHT22;5536;49.602;10.980;2023-03-15T07:12:59;2.60;99.90
10968;DHT22;5536;49.602;10.980;2023-03-15T07:15:26;2.60;99.90
10968;DHT22;5536;49.602;10.980;2023-03-15T07:17:54;2.60;99.90
10968;DHT22;5536;49.602;10.980;2023-03-15T07:20:20;2.70;99.90
10968;DHT22;5536;49.602;10.980;2023-03-15T07:22:49;2.70;99.90
10968;DHT22;5536;49.602;10.980;2023-03-15T07:25:16;2.80;99.90
10968;DHT22;5536;49.602;10.980;2023-03-15T07:27:48;2.90;99.90
10968;DHT22;5536;49.602;10.980;2023-03-15T07:30:16;2.90;99.90
10968;DHT22;5536;49.602;10.980;2023-03-15T07:32:43;2.90;99.90
10968;DHT22;5536;49.602;10.980;2023-03-15T07:35:10;3.00;99.90
10968;DHT22;5536;49.602;10.980;2023-03-15T07:37:38;3.00;99.90
10968;DHT22;5536;49.602;10.980;2023-03-15T07:40:08;3.00;99.90
10968;DHT22;5536;49.602;10.980;2023-03-15T07:42:37;3.10;99.90
10968;DHT22;5536;49.602;10.980;2023-03-15T07:45:05;3.20;99.90
10968;DHT22;5536;49.602;10.980;2023-03-15T07:47:33;3.30;99.90
10968;DHT22;5536;49.602;10.980;2023-03-15T07:50:00;3.50;99.90
10968;DHT22;5536;49.602;10.980;2023-03-15T07:52:28;3.70;99.90
10968;DHT22;5536;49.602;10.980;2023-03-15T07:54:55;3.80;99.90
10968;DHT22;5536;49.602;10.980;2023-03-15T07:57:24;3.90;99.90
10968;DHT22;5536;49.602;10.980;2023-03-15T07:59:51;3.90;99.90
10968;DHT22;5536;49.602;10.980;2023-03-15T08:02:18;3.90;99.90
10968;DHT22;5536;49.602;10.980;2023-03-15T08:04:45;3.70;99.90
10968;DHT22;5536;49.602;10.980;2023-03-15T08:07:15;3.60;99.90
10968;DHT22;5536;49.602;10.980;2023-03-15T08:09:42;3.40;99.90
10968;DHT22;5536;49.602;10.980;2023-03-15T08:12:09;3.30;99.90
10968;DHT22;5536;49.602;10.980;2023-03-15T08:14:38;3.30;99.90
10968;DHT22;5536;49.602;10.980;2023-03-15T08:17:05;3.50;99.90
10968;DHT22;5536;49.602;10.980;2023-03-15T08:19:37;3.60;99.90
10968;DHT22;5536;49.602;10.980;2023-03-15T08:22:05;3.70;99.90
10968;DHT22;5536;49.602;10.980;2023-03-15T08:24:32;3.70;99.90
10968;DHT22;5536;49.602;10.980;2023-03-15T08:27:02;3.70;99.90
10968;DHT22;5536;49.602;10.980;2023-03-15T08:29:30;3.80;99.90
10968;DHT22;5536;49.602;10.980;2023-03-15T08:31:58;3.90;99.90
10968;DHT22;5536;49.602;10.980;2023-03-15T08:34:25;4.00;99.90
10968;DHT22;5536;49.602;10.980;2023-03-15T08:36:53;4.10;99.90
10968;DHT22;5536;49.602;10.980;2023-03-15T08:39:19;4.20;99.90
10968;DHT22;5536;49.602;10.980;2023-03-15T08:41:48;4.30;99.90
10968;DHT22;5536;49.602;10.980;2023-03-15T08:44:16;4.30;99.90
10968;DHT22;5536;49.602;10.980;2023-03-15T08:46:43;4.40;99.90
10968;DHT22;5536;49.602;10.980;2023-03-15T08:49:11;4.60;99.90
10968;DHT22;5536;49.602;10.980;2023-03-15T08:51:38;4.80;99.90
10968;DHT22;5536;49.602;10.980;2023-03-15T08:54:05;4.90;99.90
10968;DHT22;5536;49.602;10.980;2023-03-15T08:56:32;4.80;99.90
10968;DHT22;5536;49.602;10.980;2023-03-15T08:58:59;4.90;99.90
10968;DHT22;5536;49.602;10.980;2023-03-15T09:01:26;4.90;99.90
10968;DHT22;5536;49.602;10.980;2023-03-15T09:03:55;4.90;99.90
10968;DHT22;5536;49.602;10.980;2023-03-15T09:06:23;5.10;99.90
10968;DHT22;5536;49.602;10.980;2023-03-15T09:08:50;5.10;99.90
10968;DHT22;5536;49.602;10.980;2023-03-15T09:11:18;5.10;99.90
10968;DHT22;5536;49.602;10.980;2023-03-15T09:13:45;5.10;99.90
10968;DHT22;5536;49.602;10.980;2023-03-15T09:16:12;5.10;99.90
10968;DHT22;5536;49.602;10.980;2023-03-15T09:18:39;5.20;99.90
10968;DHT22;5536;49.602;10.980;2023-03-15T09:21:08;5.20;99.90
10968;DHT22;5536;49.602;10.980;2023-03-15T09:23:37;5.40;99.90
10968;DHT22;5536;49.602;10.980;2023-03-15T09:26:04;5.30;99.90
10968;DHT22;5536;49.602;10.980;2023-03-15T09:28:31;5.20;99.90
10968;DHT22;5536;49.602;10.980;2023-03-15T09:30:58;5.10;99.90
10968;DHT22;5536;49.602;10.980;2023-03-15T09:33:29;5.00;99.90
10968;DHT22;5536;49.602;10.980;2023-03-15T09:35:58;5.00;99.90
10968;DHT22;5536;49.602;10.980;2023-03-15T09:38:25;5.00;99.90
10968;DHT22;5536;49.602;10.980;2023-03-15T09:40:57;4.90;99.90
10968;DHT22;5536;49.602;10.980;2023-03-15T09:43:53;4.70;99.90
10968;DHT22;5536;49.602;10.980;2023-03-15T09:46:26;4.60;99.90
10968;DHT22;5536;49.602;10.980;2023-03-15T09:48:55;4.30;99.90
10968;DHT22;5536;49.602;10.980;2023-03-15T09:51:32;3.90;99.90
10968;DHT22;5536;49.602;10.980;2023-03-15T09:54:03;3.70;99.90
10968;DHT22;5536;49.602;10.980;2023-03-15T09:56:35;3.50;99.90
10968;DHT22;5536;49.602;10.980;2023-03-15T09:59:04;3.40;99.90
10968;DHT22;5536;49.602;10.980;2023-03-15T10:01:34;3.40;99.90
10968;DHT22;5536;49.602;10.980;2023-03-15T10:04:07;3.20;99.90
10968;DHT22;5536;49.602;10.980;2023-03-15T10:06:36;3.10;99.90
10968;DHT22;5536;49.602;10.980;2023-03-15T10:09:10;3.10;99.90
10968;DHT22;5536;49.602;10.980;2023-03-15T10:11:46;3.20;99.90
10968;DHT22;5536;49.602;10.980;2023-03-15T10:14:23;3.30;99.90
10968;DHT22;5536;49.602;10.980;2023-03-15T10:16:52;3.40;99.90
10968;DHT22;5536;49.602;10.980;2023-03-15T10:19:24;3.40;99.90
10968;DHT22;5536;49.602;10.980;2023-03-15T10:21:59;3.60;99.90
10968;DHT22;5536;49.602;10.980;2023-03-15T10:24:33;3.70;99.90
10968;DHT22;5536;49.602;10.980;2023-03-15T10:27:13;3.60;99.90
10968;DHT22;5536;49.602;10.980;2023-03-15T10:29:42;3.50;99.90
10968;DHT22;5536;49.602;10.980;2023-03-15T10:32:15;3.30;99.90
10968;DHT22;5536;49.602;10.980;2023-03-15T10:34:46;3.30;99.90
10968;DHT22;5536;49.602;10.980;2023-03-15T10:37:13;3.50;99.90
10968;DHT22;5536;49.602;10.980;2023-03-15T10:39:41;3.50;99.90
10968;DHT22;5536;49.602;10.980;2023-03-15T10:42:27;3.50;99.90
10968;DHT22;5536;49.602;10.980;2023-03-15T10:44:54;3.40;99.90
10968;DHT22;5536;49.602;10.980;2023-03-15T10:47:23;3.40;99.90
10968;DHT22;5536;49.602;10.980;2023-03-15T10:49:55;3.50;99.90
10968;DHT22;5536;49.602;10.980;2023-03-15T10:52:32;3.50;99.90
10968;DHT22;5536;49.602;10.980;2023-03-15T10:55:03;3.60;99.90
10968;DHT22;5536;49.602;10.980;2023-03-15T10:57:36;3.60;99.90
10968;DHT22;5536;49.602;10.980;2023-03-15T11:00:17;3.50;99.90
10968;DHT22;5536;49.602;10.980;2023-03-15T11:02:49;3.50;99.90
10968;DHT22;5536;49.602;10.980;2023-03-15T11:05:18;3.50;99.90
10968;DHT22;5536;49.602;10.980;2023-03-15T11:07:53;3.60;99.90
10968;DHT22;5536;49.602;10.980;2023-03-15T11:10:22;3.60;99.90
10968;DHT22;5536;49.602;10.980;2023-03-15T11:13:08;3.70;99.90
10968;DHT22;5536;49.602;10.980;2023-03-15T11:15:35;3.70;99.90
10968;DHT22;5536;49.602;10.980;2023-03-15T11:18:02;3.70;99.90
10968;DHT22;5536;49.602;10.980;2023-03-15T11:20:31;3.70;99.90
10968;DHT22;5536;49.602;10.980;2023-03-15T11:23:10;3.90;99.90
10968;DHT22;5536;49.602;10.980;2023-03-15T11:25:39;3.80;99.90
10968;DHT22;5536;49.602;10.980;2023-03-15T11:28:14;3.80;99.90
10968;DHT22;5536;49.602;10.980;2023-03-15T11:30:44;3.80;99.90
10968;DHT22;5536;49.602;10.980;2023-03-15T11:33:26;3.80;99.90
10968;DHT22;5536;49.602;10.980;2023-03-15T11:35:59;3.80;99.90
10968;DHT22;5536;49.602;10.980;2023-03-15T11:38:31;3.80;99.90
10968;DHT22;5536;49.602;10.980;2023-03-15T11:41:04;3.70;99.90
10968;DHT22;5536;49.602;10.980;2023-03-15T11:43:48;3.70;99.90
10968;DHT22;5536;49.602;10.980;2023-03-15T11:46:23;3.70;99.90
10968;DHT22;5536;49.602;10.980;2023-03-15T11:48:56;3.80;99.90
10968;DHT22;5536;49.602;10.980;2023-03-15T11:51:25;3.90;99.90
10968;DHT22;5536;49.602;10.980;2023-03-15T11:54:03;3.90;99.90
10968;DHT22;5536;49.602;10.980;2023-03-15T11:56:46;3.90;99.90
10968;DHT22;5536;49.602;10.980;2023-03-15T11:59:17;4.00;99.90
10968;DHT22;5536;49.602;10.980;2023-03-15T12:01:46;4.00;99.90
10968;DHT22;5536;49.602;10.980;2023-03-15T12:04:38;4.10;99.90
10968;DHT22;5536;49.602;10.980;2023-03-15T12:07:30;4.10;99.90
10968;DHT22;5536;49.602;10.980;2023-03-15T12:10:29;4.20;99.90
10968;DHT22;5536;49.602;10.980;2023-03-15T12:12:58;4.20;99.90
10968;DHT22;5536;49.602;10.980;2023-03-15T12:15:44;4.30;99.90
10968;DHT22;5536;49.602;10.980;2023-03-15T12:18:18;4.20;99.90
10968;DHT22;5536;49.602;10.980;2023-03-15T12:20:50;4.20;99.90
10968;DHT22;5536;49.602;10.980;2023-03-15T12:23:34;4.20;99.90
10968;DHT22;5536;49.602;10.980;2023-03-15T12:26:05;4.10;99.90
10968;DHT22;5536;49.602;10.980;2023-03-15T12:28:36;4.00;99.90
10968;DHT22;5536;49.602;10.980;2023-03-15T12:31:07;4.00;99.90
10968;DHT22;5536;49.602;10.980;2023-03-15T12:33:44;3.90;99.90
10968;DHT22;5536;49.602;10.980;2023-03-15T12:36:19;4.00;99.90
10968;DHT22;5536;49.602;10.980;2023-03-15T12:38:59;3.90;99.90
10968;DHT22;5536;49.602;10.980;2023-03-15T12:41:37;3.80;99.90
10968;DHT22;5536;49.602;10.980;2023-03-15T12:44:26;3.70;99.90
10968;DHT22;5536;49.602;10.980;2023-03-15T12:47:05;3.80;99.90
10968;DHT22;5536;49.602;10.980;2023-03-15T12:49:36;3.80;99.90
10968;DHT22;5536;49.602;10.980;2023-03-15T12:52:08;3.90;99.90
10968;DHT22;5536;49.602;10.980;2023-03-15T12:54:43;4.00;99.90
10968;DHT22;5536;49.602;10.980;2023-03-15T12:57:12;4.00;99.90
10968;DHT22;5536;49.602;10.980;2023-03-15T12:59:45;4.00;99.90
10968;DHT22;5536;49.602;10.980;2023-03-15T13:02:33;4.00;99.90
10968;DHT22;5536;49.602;10.980;2023-03-15T13:05:12;4.10;99.90
10968;DHT22;5536;49.602;10.980;2023-03-15T13:07:56;4.00;99.90
10968;DHT22;5536;49.602;10.980;2023-03-15T13:10:37;4.00;99.90
10968;DHT22;5536;49.602;10.980;2023-03-15T13:13:27;4.20;99.90
10968;DHT22;5536;49.602;10.980;2023-03-15T13:16:06;4.20;99.90
10968;DHT22;5536;49.602;10.980;2023-03-15T13:18:47;4.20;99.90
10968;DHT22;5536;49.602;10.980;2023-03-15T13:21:24;4.40;99.90
10968;DHT22;5536;49.602;10.980;2023-03-15T13:23:55;4.60;99.90
10968;DHT22;5536;49.602;10.980;2023-03-15T13:26:34;4.70;99.90
10968;DHT22;5536;49.602;10.980;2023-03-15T13:29:11;4.90;99.90
10968;DHT22;5536;49.602;10.980;2023-03-15T13:31:43;4.90;99.90
10968;DHT22;5536;49.602;10.980;2023-03-15T13:34:13;4.80;99.90
10968;DHT22;5536;49.602;10.980;2023-03-15T13:36:43;4.80;99.90
10968;DHT22;5536;49.602;10.980;2023-03-15T13:39:17;4.80;99.90
10968;DHT22;5536;49.602;10.980;2023-03-15T13:41:45;4.70;99.90
10968;DHT22;5536;49.602;10.980;2023-03-15T13:44:17;4.50;99.90
10968;DHT22;5536;49.602;10.980;2023-03-15T13:46:46;4.60;99.90
10968;DHT22;5536;49.602;10.980;2023-03-15T13:49:15;4.60;99.90
10968;DHT22;5536;49.602;10.980;2023-03-15T13:51:43;4.60;99.90
10968;DHT22;5536;49.602;10.980;2023-03-15T13:54:16;4.60;99.90
10968;DHT22;5536;49.602;10.980;2023-03-15T13:56:54;4.60;99.90
10968;DHT22;5536;49.602;10.980;2023-03-15T13:59:25;4.50;99.90
10968;DHT22;5536;49.602;10.980;2023-03-15T14:01:53;4.40;99.90
10968;DHT22;5536;49.602;10.980;2023-03-15T14:04:24;4.30;99.90
10968;DHT22;5536;49.602;10.980;2023-03-15T14:07:05;4.30;99.90
10968;DHT22;5536;49.602;10.980;2023-03-15T14:09:34;4.80;99.90
10968;DHT22;5536;49.602;10.980;2023-03-15T14:12:03;5.20;99.90
10968;DHT22;5536;49.602;10.980;2023-03-15T14:14:34;5.10;99.90
10968;DHT22;5536;49.602;10.980;2023-03-15T14:17:07;4.90;99.90
10968;DHT22;5536;49.602;10.980;2023-03-15T14:19:35;4.90;99.90
10968;DHT22;5536;49.602;10.980;2023-03-15T14:22:11;4.80;99.90
10968;DHT22;5536;49.602;10.980;2023-03-15T14:24:41;4.80;99.90
10968;DHT22;5536;49.602;10.980;2023-03-15T14:27:14;5.00;99.90
10968;DHT22;5536;49.602;10.980;2023-03-15T14:29:45;5.30;99.90
10968;DHT22;5536;49.602;10.980;2023-03-15T14:32:23;5.60;99.90
10968;DHT22;5536;49.602;10.980;2023-03-15T14:35:02;5.70;99.90
10968;DHT22;5536;49.602;10.980;2023-03-15T14:37:34;5.70;99.90
10968;DHT22;5536;49.602;10.980;2023-03-15T14:40:14;5.40;99.90
10968;DHT22;5536;49.602;10.980;2023-03-15T14:42:41;5.20;99.90
10968;DHT22;5536;49.602;10.980;2023-03-15T14:45:09;5.20;99.90
10968;DHT22;5536;49.602;10.980;2023-03-15T14:47:39;5.20;99.90
10968;DHT22;5536;49.602;10.980;2023-03-15T14:50:12;5.20;99.90
10968;DHT22;5536;49.602;10.980;2023-03-15T14:52:39;5.40;99.90
10968;DHT22;5536;49.602;10.980;2023-03-15T14:55:10;5.30;99.90
10968;DHT22;5536;49.602;10.980;2023-03-15T14:57:37;5.30;99.90
10968;DHT22;5536;49.602;10.980;2023-03-15T15:00:06;5.40;99.90
10968;DHT22;5536;49.602;10.980;2023-03-15T15:02:36;5.30;99.90
10968;DHT22;5536;49.602;10.980;2023-03-15T15:05:17;5.20;99.90
10968;DHT22;5536;49.602;10.980;2023-03-15T15:07:46;5.10;99.90
10968;DHT22;5536;49.602;10.980;2023-03-15T15:10:13;5.10;99.90
10968;DHT22;5536;49.602;10.980;2023-03-15T15:12:41;5.20;99.90
10968;DHT22;5536;49.602;10.980;2023-03-15T15:15:14;5.20;99.90
10968;DHT22;5536;49.602;10.980;2023-03-15T15:17:41;5.20;99.90
10968;DHT22;5536;49.602;10.980;2023-03-15T15:20:10;5.30;99.90
10968;DHT22;5536;49.602;10.980;2023-03-15T15:22:39;5.40;99.90
10968;DHT22;5536;49.602;10.980;2023-03-15T15:25:13;5.50;99.90
10968;DHT22;5536;49.602;10.980;2023-03-15T15:27:40;5.50;99.90
10968;DHT22;5536;49.602;10.980;2023-03-15T15:30:11;5.50;99.90
10968;DHT22;5536;49.602;10.980;2023-03-15T15:32:38;5.50;99.90
10968;DHT22;5536;49.602;10.980;2023-03-15T15:35:06;5.50;99.90
10968;DHT22;5536;49.602;10.980;2023-03-15T15:37:33;5.40;99.90
10968;DHT22;5536;49.602;10.980;2023-03-15T15:40:03;5.40;99.90
10968;DHT22;5536;49.602;10.980;2023-03-15T15:42:31;5.50;99.90
10968;DHT22;5536;49.602;10.980;2023-03-15T15:44:58;5.50;99.90
10968;DHT22;5536;49.602;10.980;2023-03-15T15:47:24;5.50;99.90
10968;DHT22;5536;49.602;10.980;2023-03-15T15:49:51;5.40;99.90
10968;DHT22;5536;49.602;10.980;2023-03-15T15:52:18;5.40;99.90
10968;DHT22;5536;49.602;10.980;2023-03-15T15:54:47;5.40;99.90
10968;DHT22;5536;49.602;10.980;2023-03-15T15:57:17;5.30;99.90
10968;DHT22;5536;49.602;10.980;2023-03-15T15:59:45;5.40;99.90
10968;DHT22;5536;49.602;10.980;2023-03-15T16:02:13;5.50;99.90